createdAt,value
2023-04-09T00:02:02.281Z,66.40
2023-04-09T00:04:49.507Z,61.60
2023-04-09T00:07:35.906Z,60.60
2023-04-09T00:10:22.694Z,51.90
2023-04-09T00:13:09.160Z,49.60
2023-04-09T00:15:56.197Z,43.80
2023-04-09T00:18:42.616Z,45.50
2023-04-09T00:21:28.968Z,46.00
2023-04-09T00:24:15.434Z,46.00
2023-04-09T00:27:01.983Z,41.40
2023-04-09T00:29:48.536Z,40.40
2023-04-09T00:32:35.024Z,36.70
2023-04-09T00:35:22.594Z,33.40
2023-04-09T00:38:09.472Z,30.30
2023-04-09T00:40:56.189Z,31.00
2023-04-09T00:43:42.542Z,37.70
2023-04-09T00:46:29.336Z,34.50
2023-04-09T00:49:16.452Z,32.80
2023-04-09T00:52:02.835Z,32.90
2023-04-09T00:54:50.948Z,31.20
2023-04-09T00:57:37.615Z,31.90
2023-04-09T01:00:24.659Z,27.50
2023-04-09T01:03:11.278Z,31.00
2023-04-09T01:06:12.149Z,35.30
2023-04-09T01:09:05.400Z,35.00
2023-04-09T01:12:18.282Z,34.00
2023-04-09T01:15:09.810Z,31.40
2023-04-09T01:18:15.993Z,30.90
2023-04-09T01:21:06.190Z,29.70
2023-04-09T01:24:01.943Z,25.70
2023-04-09T01:27:05.618Z,31.30
2023-04-09T01:30:04.243Z,28.70
2023-04-09T01:32:52.465Z,28.60
2023-04-09T01:35:42.951Z,25.60
2023-04-09T01:38:29.442Z,30.50
2023-04-09T01:41:19.471Z,25.80
2023-04-09T01:44:07.685Z,29.80
2023-04-09T01:46:55.658Z,30.00
2023-04-09T01:49:43.630Z,30.20
2023-04-09T01:52:30.736Z,28.80
2023-04-09T01:55:17.043Z,29.50
2023-04-09T01:58:04.103Z,27.90
2023-04-09T02:00:55.921Z,32.90
2023-04-09T02:03:56.821Z,32.10
2023-04-09T02:07:11.046Z,29.30
2023-04-09T02:10:00.970Z,33.30
2023-04-09T02:12:53.398Z,29.80
2023-04-09T02:15:41.528Z,30.30
2023-04-09T02:18:30.409Z,29.70
2023-04-09T02:21:18.632Z,32.10
2023-04-09T02:24:05.413Z,30.90
2023-04-09T02:26:52.345Z,29.30
2023-04-09T02:29:40.400Z,31.30
2023-04-09T02:32:27.045Z,29.90
2023-04-09T02:35:14.624Z,28.20
2023-04-09T02:38:01.126Z,30.20
2023-04-09T02:40:47.528Z,32.60
2023-04-09T02:43:34.552Z,35.90
2023-04-09T02:46:21.038Z,32.00
2023-04-09T02:49:08.169Z,35.80
2023-04-09T02:51:54.957Z,36.40
2023-04-09T02:54:41.351Z,35.00
2023-04-09T02:57:27.807Z,35.10
2023-04-09T03:00:15.376Z,39.10
2023-04-09T03:03:02.096Z,37.60
2023-04-09T03:05:48.543Z,42.60
2023-04-09T03:08:35.586Z,46.30
2023-04-09T03:11:22.216Z,42.10
2023-04-09T03:14:08.477Z,38.20
2023-04-09T03:16:54.998Z,44.60
2023-04-09T03:19:41.259Z,48.70
2023-04-09T03:22:27.810Z,47.30
2023-04-09T03:25:15.337Z,40.50
2023-04-09T03:28:01.510Z,49.10
2023-04-09T03:30:57.972Z,50.20
2023-04-09T03:33:44.611Z,49.40
2023-04-09T03:36:31.620Z,51.70
2023-04-09T03:39:33.082Z,49.60
2023-04-09T03:42:19.864Z,44.50
2023-04-09T03:45:08.776Z,44.90
2023-04-09T03:47:59.996Z,45.40
2023-04-09T03:50:46.713Z,52.50
2023-04-09T03:53:35.458Z,42.50
2023-04-09T03:56:24.562Z,44.10
2023-04-09T03:59:11.299Z,50.10
2023-04-09T04:02:00.029Z,47.70
2023-04-09T04:04:47.584Z,43.30
2023-04-09T04:07:34.509Z,41.90
2023-04-09T04:10:27.288Z,49.10
2023-04-09T04:13:13.838Z,46.90
2023-04-09T04:16:09.708Z,29.20
2023-04-09T04:18:56.778Z,46.90
2023-04-09T04:21:43.024Z,46.30
2023-04-09T04:24:29.439Z,46.30
2023-04-09T04:27:16.223Z,43.00
2023-04-09T04:30:03.295Z,43.30
2023-04-09T04:33:10.000Z,36.20
2023-04-09T04:36:07.873Z,42.50
2023-04-09T04:39:03.017Z,41.20
2023-04-09T04:42:01.700Z,40.00
2023-04-09T04:44:48.037Z,45.00
2023-04-09T04:47:53.715Z,40.40
2023-04-09T04:50:40.114Z,41.80
2023-04-09T04:53:28.266Z,38.00
2023-04-09T04:56:15.701Z,38.10
2023-04-09T04:59:16.321Z,36.40
2023-04-09T05:02:12.418Z,28.40
2023-04-09T05:05:25.469Z,35.80
2023-04-09T05:08:14.085Z,32.40
2023-04-09T05:11:01.206Z,31.30
2023-04-09T05:13:53.292Z,26.80
2023-04-09T05:16:40.607Z,31.40
2023-04-09T05:19:27.487Z,24.00
2023-04-09T05:22:20.954Z,31.60
2023-04-09T05:25:08.631Z,26.00
2023-04-09T05:27:57.355Z,26.50
2023-04-09T05:30:47.906Z,25.20
2023-04-09T05:33:38.278Z,23.80
2023-04-09T05:36:28.347Z,23.70
2023-04-09T05:39:15.054Z,24.30
2023-04-09T05:42:02.277Z,28.40
2023-04-09T05:44:53.604Z,26.40
2023-04-09T05:47:40.525Z,24.10
2023-04-09T05:50:34.389Z,26.30
2023-04-09T05:53:27.736Z,27.50
2023-04-09T05:56:15.867Z,26.20
2023-04-09T05:59:09.055Z,28.10
2023-04-09T06:01:56.376Z,30.50
2023-04-09T06:04:43.176Z,27.20
2023-04-09T06:07:30.217Z,26.30
2023-04-09T06:10:17.081Z,26.40
2023-04-09T06:13:04.002Z,28.60
2023-04-09T06:15:51.216Z,25.60
2023-04-09T06:18:38.039Z,27.10
2023-04-09T06:21:24.710Z,29.10
2023-04-09T06:24:11.332Z,27.50
2023-04-09T06:26:57.870Z,27.10
2023-04-09T06:29:44.406Z,25.70
2023-04-09T06:32:33.647Z,27.70
2023-04-09T06:35:24.385Z,30.50
2023-04-09T06:38:11.133Z,26.80
2023-04-09T06:40:57.794Z,28.70
2023-04-09T06:43:44.476Z,25.80
2023-04-09T06:46:31.333Z,23.10
2023-04-09T06:49:17.867Z,25.30
2023-04-09T06:52:05.689Z,23.50
2023-04-09T06:54:51.963Z,22.70
2023-04-09T06:57:39.258Z,23.90
2023-04-09T07:00:26.412Z,22.60
2023-04-09T07:03:13.208Z,20.60
2023-04-09T07:05:59.614Z,23.80
2023-04-09T07:08:46.291Z,23.10
2023-04-09T07:11:32.892Z,21.60
2023-04-09T07:14:19.535Z,20.00
2023-04-09T07:17:06.141Z,26.00
2023-04-09T07:19:54.120Z,25.50
2023-04-09T07:22:41.671Z,28.30
2023-04-09T07:25:28.410Z,28.10
2023-04-09T07:28:15.099Z,22.10
2023-04-09T07:31:03.100Z,22.50
2023-04-09T07:33:49.563Z,25.80
2023-04-09T07:36:35.973Z,25.30
2023-04-09T07:39:22.518Z,23.20
2023-04-09T07:42:09.544Z,21.60
2023-04-09T07:44:56.752Z,22.00
2023-04-09T07:47:43.380Z,19.60
2023-04-09T07:50:29.987Z,20.90
2023-04-09T07:53:16.673Z,19.50
2023-04-09T07:56:03.258Z,16.10
2023-04-09T07:58:50.967Z,15.60
2023-04-09T08:01:37.771Z,16.50
2023-04-09T08:04:24.762Z,15.80
2023-04-09T08:07:11.864Z,17.00
2023-04-09T08:09:57.997Z,13.30
2023-04-09T08:12:44.948Z,15.60
2023-04-09T08:15:32.631Z,17.30
2023-04-09T08:18:19.008Z,13.20
2023-04-09T08:21:06.261Z,13.20
2023-04-09T08:23:53.093Z,16.60
2023-04-09T08:26:41.065Z,11.40
2023-04-09T08:29:27.470Z,16.30
2023-04-09T08:32:14.381Z,16.00
2023-04-09T08:35:00.994Z,13.20
2023-04-09T08:37:47.732Z,14.80
2023-04-09T08:40:36.129Z,15.30
2023-04-09T08:43:25.013Z,13.70
2023-04-09T08:46:15.734Z,16.00
2023-04-09T08:49:02.374Z,13.20
2023-04-09T08:51:49.180Z,16.90
2023-04-09T08:54:35.897Z,18.20
2023-04-09T08:57:22.163Z,12.10
2023-04-09T09:00:09.724Z,16.60
2023-04-09T09:03:08.504Z,19.50
2023-04-09T09:05:55.412Z,17.00
2023-04-09T09:08:42.082Z,13.70
2023-04-09T09:11:29.161Z,18.40
2023-04-09T09:14:20.171Z,17.10
2023-04-09T09:17:08.693Z,16.20
2023-04-09T09:19:55.501Z,16.00
2023-04-09T09:22:55.917Z,15.10
2023-04-09T09:25:43.369Z,16.10
2023-04-09T09:28:35.612Z,17.50
2023-04-09T09:31:23.161Z,19.90
2023-04-09T09:34:10.186Z,21.00
2023-04-09T09:36:56.718Z,17.10
2023-04-09T09:39:44.809Z,19.50
2023-04-09T09:42:31.946Z,18.10
2023-04-09T09:45:19.642Z,19.60
2023-04-09T09:48:06.440Z,19.80
2023-04-09T09:50:53.441Z,19.30
2023-04-09T09:53:43.454Z,25.00
2023-04-09T09:56:39.568Z,22.00
2023-04-09T09:59:32.200Z,20.40
2023-04-09T10:02:22.840Z,18.10
2023-04-09T10:05:10.524Z,18.70
2023-04-09T10:07:58.473Z,12.40
2023-04-09T10:10:45.637Z,14.50
2023-04-09T10:13:41.598Z,15.10
2023-04-09T10:16:28.519Z,14.30
2023-04-09T10:19:15.648Z,15.20
2023-04-09T10:22:08.051Z,12.60
2023-04-09T10:24:55.809Z,12.40
2023-04-09T10:27:46.200Z,12.60
2023-04-09T10:30:34.451Z,16.00
2023-04-09T10:33:29.205Z,12.80
2023-04-09T10:36:19.296Z,12.50
2023-04-09T10:39:13.702Z,12.10
2023-04-09T10:42:07.078Z,10.30
2023-04-09T10:45:14.711Z,11.10
2023-04-09T10:48:03.174Z,9.90
2023-04-09T10:50:54.270Z,7.70
2023-04-09T10:53:40.920Z,7.40
2023-04-09T10:56:27.429Z,10.10
2023-04-09T10:59:14.056Z,9.90
2023-04-09T11:02:00.381Z,10.30
2023-04-09T11:05:07.373Z,9.80
2023-04-09T11:07:59.318Z,10.70
2023-04-09T11:10:49.054Z,9.70
2023-04-09T11:13:36.900Z,8.50
2023-04-09T11:16:26.050Z,9.70
2023-04-09T11:19:13.705Z,10.30
2023-04-09T11:22:00.216Z,8.70
2023-04-09T11:24:46.792Z,9.40
2023-04-09T11:27:45.806Z,13.70
2023-04-09T11:30:34.535Z,9.70
2023-04-09T11:33:20.996Z,10.30
2023-04-09T11:36:07.787Z,9.20
2023-04-09T11:38:55.469Z,8.70
2023-04-09T11:41:42.257Z,7.60
2023-04-09T11:44:28.664Z,9.00
2023-04-09T11:47:17.430Z,8.80
2023-04-09T11:50:06.870Z,9.30
2023-04-09T11:52:53.267Z,9.40
2023-04-09T11:55:39.522Z,9.30
2023-04-09T11:58:28.024Z,60.30
2023-04-09T12:01:15.774Z,12.40
2023-04-09T12:04:02.817Z,8.60
2023-04-09T12:06:49.965Z,8.10
2023-04-09T12:09:47.860Z,6.00
2023-04-09T12:12:41.909Z,7.70
2023-04-09T12:15:32.961Z,9.90
2023-04-09T12:18:23.462Z,9.50
2023-04-09T12:21:10.419Z,6.20
2023-04-09T12:23:56.829Z,6.70
2023-04-09T12:26:45.608Z,6.90
2023-04-09T12:29:33.654Z,10.30
2023-04-09T12:32:20.705Z,7.00
2023-04-09T12:35:07.918Z,9.00
2023-04-09T12:37:54.269Z,6.90
2023-04-09T12:40:40.743Z,6.60
2023-04-09T12:43:27.283Z,8.10
2023-04-09T12:46:14.242Z,8.60
2023-04-09T12:49:01.028Z,7.20
2023-04-09T12:51:47.504Z,7.80
2023-04-09T12:54:34.227Z,8.20
2023-04-09T12:57:20.896Z,5.90
2023-04-09T13:00:08.040Z,5.70
2023-04-09T13:02:55.837Z,6.60
2023-04-09T13:05:43.864Z,6.10
2023-04-09T13:08:31.155Z,6.80
2023-04-09T13:11:17.550Z,6.60
2023-04-09T13:14:04.124Z,6.60
2023-04-09T13:16:52.509Z,5.80
2023-04-09T13:19:39.889Z,6.90
2023-04-09T13:22:27.796Z,6.50
2023-04-09T13:25:17.183Z,6.10
2023-04-09T13:30:50.261Z,6.00
2023-04-09T13:33:36.817Z,5.70
2023-04-09T13:36:23.600Z,6.10
2023-04-09T13:39:10.344Z,6.30
2023-04-09T13:41:57.403Z,6.80
2023-04-09T13:44:45.525Z,7.30
2023-04-09T13:47:31.853Z,7.20
2023-04-09T13:50:18.711Z,7.50
2023-04-09T13:53:05.863Z,7.20
2023-04-09T13:55:52.520Z,6.60
2023-04-09T13:58:39.894Z,6.30
2023-04-09T14:01:28.405Z,7.70
2023-04-09T14:04:15.431Z,7.50
2023-04-09T14:07:01.580Z,7.70
2023-04-09T14:09:48.392Z,8.40
2023-04-09T14:12:34.947Z,8.90
2023-04-09T14:15:22.247Z,9.20
2023-04-09T14:18:08.812Z,8.60
2023-04-09T14:20:55.435Z,10.90
2023-04-09T14:23:42.153Z,10.00
2023-04-09T14:26:29.297Z,13.50
2023-04-09T14:29:17.284Z,11.20
2023-04-09T14:32:03.680Z,10.20
2023-04-09T14:34:50.465Z,10.80
2023-04-09T14:37:37.715Z,9.90
2023-04-09T14:40:24.510Z,9.40
2023-04-09T14:43:10.895Z,10.80
2023-04-09T14:45:57.341Z,12.70
2023-04-09T14:48:43.693Z,13.10
2023-04-09T14:51:30.844Z,14.70
2023-04-09T14:54:17.509Z,12.30
2023-04-09T14:57:03.923Z,12.20
2023-04-09T14:59:50.485Z,13.60
2023-04-09T15:02:41.640Z,12.20
2023-04-09T15:05:28.369Z,12.40
2023-04-09T15:08:14.567Z,15.80
2023-04-09T15:11:01.400Z,13.10
2023-04-09T15:13:48.150Z,13.10
2023-04-09T15:16:37.474Z,13.40
2023-04-09T15:19:24.163Z,12.60
2023-04-09T15:22:10.680Z,12.80
2023-04-09T15:24:57.262Z,12.90
2023-04-09T15:27:44.011Z,14.30
2023-04-09T15:30:30.797Z,13.20
2023-04-09T15:33:17.428Z,13.70
2023-04-09T15:36:04.454Z,13.80
2023-04-09T15:38:54.110Z,13.80
2023-04-09T15:41:40.912Z,12.10
2023-04-09T15:44:27.613Z,16.70
2023-04-09T15:47:14.268Z,15.80
2023-04-09T15:50:00.663Z,13.60
2023-04-09T15:52:47.362Z,15.30
2023-04-09T15:55:33.694Z,16.30
2023-04-09T15:58:19.879Z,16.50
2023-04-09T16:01:07.604Z,18.90
2023-04-09T16:03:54.296Z,19.60
2023-04-09T16:06:40.847Z,17.40
2023-04-09T16:09:27.175Z,17.50
2023-04-09T16:12:13.705Z,19.60
2023-04-09T16:14:59.994Z,13.50
2023-04-09T16:17:46.556Z,12.20
2023-04-09T16:20:33.283Z,17.00
2023-04-09T16:23:21.276Z,15.40
2023-04-09T16:26:08.050Z,13.40
2023-04-09T16:28:54.918Z,14.40
2023-04-09T16:31:42.330Z,14.90
2023-04-09T16:34:31.460Z,14.60
2023-04-09T16:37:17.941Z,14.80
2023-04-09T16:40:05.518Z,16.50
2023-04-09T16:42:52.336Z,14.40
2023-04-09T16:45:39.038Z,15.80
2023-04-09T16:48:25.697Z,16.50
2023-04-09T16:51:12.500Z,17.80
2023-04-09T16:53:58.840Z,16.20
2023-04-09T16:56:48.521Z,15.80
2023-04-09T16:59:34.815Z,17.20
2023-04-09T17:02:22.845Z,16.60
2023-04-09T17:05:10.257Z,13.90
2023-04-09T17:07:57.166Z,14.10
2023-04-09T17:10:44.778Z,17.10
2023-04-09T17:13:35.812Z,17.00
2023-04-09T17:16:22.525Z,14.90
2023-04-09T17:19:08.997Z,15.30
2023-04-09T17:21:57.017Z,16.60
2023-04-09T17:24:43.929Z,16.20
2023-04-09T17:27:30.221Z,17.60
2023-04-09T17:30:17.152Z,16.00
2023-04-09T17:33:04.001Z,15.80
2023-04-09T17:35:50.999Z,17.40
2023-04-09T17:38:37.488Z,17.40
2023-04-09T17:41:24.210Z,15.20
2023-04-09T17:44:11.398Z,16.20
2023-04-09T17:46:58.171Z,19.70
2023-04-09T17:49:45.950Z,22.40
2023-04-09T17:52:36.767Z,23.10
2023-04-09T17:55:23.587Z,26.90
2023-04-09T17:58:09.947Z,24.00
2023-04-09T18:00:56.831Z,28.80
2023-04-09T18:03:45.759Z,34.90
2023-04-09T18:06:32.383Z,40.50
2023-04-09T18:09:19.276Z,41.80
2023-04-09T18:12:05.744Z,42.20
2023-04-09T18:14:52.025Z,41.40
2023-04-09T18:17:38.606Z,52.40
2023-04-09T18:20:25.443Z,42.70
2023-04-09T18:23:12.285Z,46.90
2023-04-09T18:25:59.045Z,46.60
2023-04-09T18:28:45.360Z,45.60
2023-04-09T18:31:32.046Z,38.20
2023-04-09T18:34:19.610Z,31.90
2023-04-09T18:37:07.750Z,37.10
2023-04-09T18:39:54.676Z,30.10
2023-04-09T18:42:41.506Z,29.10
2023-04-09T18:45:27.997Z,27.60
2023-04-09T18:48:14.718Z,25.60
2023-04-09T18:51:03.028Z,39.30
2023-04-09T18:53:53.025Z,59.10
2023-04-09T18:56:39.538Z,54.10
2023-04-09T18:59:26.199Z,51.90
2023-04-09T19:02:13.052Z,49.90
2023-04-09T19:04:59.952Z,41.10
2023-04-09T19:07:46.975Z,54.10
2023-04-09T19:10:33.643Z,50.60
2023-04-09T19:13:20.194Z,46.50
2023-04-09T19:16:09.354Z,46.90
2023-04-09T19:18:56.818Z,47.70
2023-04-09T19:21:43.276Z,56.10
2023-04-09T19:24:29.631Z,61.30
2023-04-09T19:27:17.090Z,65.30
2023-04-09T19:30:04.399Z,59.90
2023-04-09T19:32:51.393Z,50.80
2023-04-09T19:35:40.717Z,49.20
2023-04-09T19:38:27.156Z,53.00
2023-04-09T19:41:13.988Z,67.60
2023-04-09T19:44:01.444Z,73.40
2023-04-09T19:46:48.204Z,71.90
2023-04-09T19:49:34.970Z,66.10
2023-04-09T19:52:21.828Z,56.70
2023-04-09T19:55:09.399Z,52.30
2023-04-09T19:57:56.900Z,48.90
2023-04-09T20:00:43.576Z,49.00
2023-04-09T20:03:32.693Z,52.20
2023-04-09T20:06:19.541Z,52.00
2023-04-09T20:09:05.976Z,52.10
2023-04-09T20:11:53.876Z,46.70
2023-04-09T20:14:40.660Z,72.10
2023-04-09T20:17:27.315Z,62.40
2023-04-09T20:20:17.943Z,57.30
2023-04-09T20:23:05.057Z,62.40
2023-04-09T20:25:55.289Z,60.30
2023-04-09T20:28:42.464Z,47.80
2023-04-09T20:31:30.988Z,51.30
2023-04-09T20:34:17.356Z,55.40
2023-04-09T20:37:05.737Z,46.70
2023-04-09T20:39:52.416Z,52.50
2023-04-09T20:42:40.900Z,47.00
2023-04-09T20:45:27.265Z,43.80
2023-04-09T20:48:14.907Z,47.50
2023-04-09T20:51:03.848Z,46.20
2023-04-09T20:53:50.165Z,37.70
2023-04-09T20:56:36.676Z,28.70
2023-04-09T20:59:23.695Z,32.00
2023-04-09T21:02:12.800Z,31.60
2023-04-09T21:05:03.481Z,27.90
2023-04-09T21:08:02.230Z,26.40
2023-04-09T21:10:48.688Z,25.80
2023-04-09T21:13:50.447Z,18.20
2023-04-09T21:16:41.409Z,16.70
2023-04-09T21:19:28.278Z,13.50
2023-04-09T21:22:15.234Z,14.10
2023-04-09T21:25:03.302Z,15.90
2023-04-09T21:27:49.867Z,14.30
2023-04-09T21:30:37.955Z,26.30
2023-04-09T21:33:26.323Z,28.90
2023-04-09T21:36:13.636Z,26.80
2023-04-09T21:39:00.307Z,25.40
2023-04-09T21:41:47.594Z,23.40
2023-04-09T21:44:33.784Z,27.20
2023-04-09T21:47:20.110Z,22.00
2023-04-09T21:50:08.417Z,16.20
2023-04-09T21:52:54.470Z,17.50
2023-04-09T21:55:40.705Z,14.40
2023-04-09T21:58:27.457Z,12.70
2023-04-09T22:01:22.662Z,13.50
2023-04-09T22:04:15.688Z,16.50
2023-04-09T22:07:03.371Z,14.30
2023-04-09T22:09:49.500Z,12.70
2023-04-09T22:12:37.253Z,9.40
2023-04-09T22:15:23.688Z,11.70
2023-04-09T22:18:10.485Z,11.30
2023-04-09T22:20:57.210Z,11.10
2023-04-09T22:23:44.174Z,14.00
2023-04-09T22:26:31.708Z,13.90
2023-04-09T22:29:17.701Z,11.60
2023-04-09T22:32:04.403Z,15.30
2023-04-09T22:34:50.683Z,14.90
2023-04-09T22:37:37.300Z,16.60
2023-04-09T22:40:23.502Z,14.60
2023-04-09T22:43:10.177Z,13.40
2023-04-09T22:45:57.370Z,13.30
2023-04-09T22:48:44.766Z,13.70
2023-04-09T22:51:34.645Z,8.30
2023-04-09T22:54:22.009Z,7.90
2023-04-09T22:57:08.576Z,11.00
2023-04-09T22:59:55.352Z,8.50
2023-04-09T23:02:42.311Z,12.50
2023-04-09T23:05:28.898Z,13.60
2023-04-09T23:08:15.778Z,11.30
2023-04-09T23:11:02.258Z,19.50
2023-04-09T23:13:48.582Z,15.10
2023-04-09T23:16:35.558Z,9.50
2023-04-09T23:19:21.897Z,10.80
2023-04-09T23:22:08.225Z,15.60
2023-04-09T23:24:54.804Z,10.20
2023-04-09T23:27:41.155Z,12.30
2023-04-09T23:30:28.162Z,13.00
2023-04-09T23:33:14.903Z,9.90
2023-04-09T23:36:01.536Z,9.70
2023-04-09T23:38:47.975Z,14.00
2023-04-09T23:41:34.568Z,11.00
2023-04-09T23:44:21.021Z,9.90
2023-04-09T23:47:07.751Z,14.20
2023-04-09T23:49:54.459Z,14.70
2023-04-09T23:52:47.184Z,19.60
2023-04-09T23:55:37.885Z,18.00
2023-04-09T23:58:24.385Z,18.30
